createdAt,value
2023-03-08T00:00:14.653Z,7.75
2023-03-08T00:02:41.227Z,8.57
2023-03-08T00:05:07.983Z,8.23
2023-03-08T00:07:34.924Z,7.05
2023-03-08T00:10:01.478Z,9.98
2023-03-08T00:12:28.632Z,6.68
2023-03-08T00:14:55.013Z,7.82
2023-03-08T00:17:21.520Z,10.82
2023-03-08T00:19:48.077Z,8.15
2023-03-08T00:22:14.475Z,5.45
2023-03-08T00:24:41.039Z,7.40
2023-03-08T00:27:07.552Z,7.97
2023-03-08T00:29:34.015Z,5.68
2023-03-08T00:32:00.459Z,8.63
2023-03-08T00:34:26.881Z,4.55
2023-03-08T00:36:54.032Z,4.85
2023-03-08T00:39:20.528Z,5.40
2023-03-08T00:41:46.944Z,5.70
2023-03-08T00:44:13.635Z,4.57
2023-03-08T00:46:40.151Z,8.02
2023-03-08T00:49:06.698Z,4.53
2023-03-08T00:51:33.110Z,3.72
2023-03-08T00:53:59.583Z,6.05
2023-03-08T00:56:26.141Z,4.03
2023-03-08T00:58:52.573Z,5.82
2023-03-08T01:01:19.645Z,4.93
2023-03-08T01:03:48.375Z,4.13
2023-03-08T01:06:16.027Z,5.78
2023-03-08T01:08:43.135Z,4.55
2023-03-08T01:11:24.779Z,3.95
2023-03-08T01:13:51.994Z,7.18
2023-03-08T01:16:19.909Z,5.10
2023-03-08T01:18:46.369Z,4.40
2023-03-08T01:21:12.799Z,5.63
2023-03-08T01:23:41.595Z,6.72
2023-03-08T01:26:12.052Z,6.50
2023-03-08T01:28:38.524Z,6.57
2023-03-08T01:31:07.487Z,7.35
2023-03-08T01:33:35.982Z,7.65
2023-03-08T01:36:03.210Z,8.68
2023-03-08T01:38:29.799Z,6.68
2023-03-08T01:40:57.386Z,9.10
2023-03-08T01:43:23.807Z,6.63
2023-03-08T01:46:09.513Z,6.53
2023-03-08T01:48:41.843Z,8.27
2023-03-08T01:51:13.321Z,5.88
2023-03-08T01:53:40.671Z,7.95
2023-03-08T01:56:08.990Z,9.73
2023-03-08T01:58:35.758Z,5.03
2023-03-08T02:01:02.218Z,5.63
2023-03-08T02:03:28.994Z,7.03
2023-03-08T02:05:55.494Z,4.93
2023-03-08T02:08:22.388Z,4.00
2023-03-08T02:10:50.481Z,6.53
2023-03-08T02:13:19.439Z,4.43
2023-03-08T02:15:45.910Z,4.93
2023-03-08T02:18:12.421Z,4.88
2023-03-08T02:20:39.913Z,3.72
2023-03-08T02:23:25.354Z,4.28
2023-03-08T02:25:56.798Z,4.30
2023-03-08T02:28:24.303Z,3.63
2023-03-08T02:30:52.799Z,5.57
2023-03-08T02:33:19.260Z,3.90
2023-03-08T02:35:46.190Z,3.75
2023-03-08T02:38:13.397Z,6.95
2023-03-08T02:40:40.383Z,5.28
2023-03-08T02:43:07.118Z,4.75
2023-03-08T02:45:34.125Z,4.97
2023-03-08T02:48:05.071Z,4.22
2023-03-08T02:50:31.770Z,3.47
2023-03-08T02:52:59.083Z,6.32
2023-03-08T02:55:25.609Z,3.45
2023-03-08T02:57:52.299Z,3.78
2023-03-08T03:00:19.886Z,5.35
2023-03-08T03:02:46.550Z,3.40
2023-03-08T03:05:13.126Z,5.65
2023-03-08T03:07:42.466Z,6.85
2023-03-08T03:10:14.226Z,3.95
2023-03-08T03:12:42.118Z,3.72
2023-03-08T03:15:11.817Z,4.65
2023-03-08T03:17:40.455Z,3.55
2023-03-08T03:20:09.155Z,6.25
2023-03-08T03:22:36.118Z,5.32
2023-03-08T03:25:04.337Z,5.72
2023-03-08T03:27:31.122Z,6.00
2023-03-08T03:29:57.661Z,5.70
2023-03-08T03:32:25.069Z,6.07
2023-03-08T03:34:52.472Z,7.18
2023-03-08T03:37:20.909Z,6.45
2023-03-08T03:39:47.364Z,6.13
2023-03-08T03:42:16.760Z,8.07
2023-03-08T03:44:50.955Z,6.05
2023-03-08T03:47:20.397Z,6.10
2023-03-08T03:49:49.694Z,7.88
2023-03-08T03:52:18.201Z,8.63
2023-03-08T03:54:52.660Z,7.43
2023-03-08T03:57:19.907Z,8.57
2023-03-08T03:59:47.407Z,9.05
2023-03-08T04:02:14.016Z,7.82
2023-03-08T04:04:49.793Z,8.57
2023-03-08T04:07:18.424Z,7.90
2023-03-08T04:09:53.717Z,9.23
2023-03-08T04:12:20.211Z,8.57
2023-03-08T04:14:46.937Z,10.32
2023-03-08T04:17:14.282Z,9.50
2023-03-08T04:19:49.114Z,9.27
2023-03-08T04:22:15.921Z,10.30
2023-03-08T04:24:50.661Z,8.98
2023-03-08T04:27:23.135Z,9.37
2023-03-08T04:29:49.740Z,9.50
2023-03-08T04:32:16.893Z,10.70
2023-03-08T04:34:54.458Z,13.10
2023-03-08T04:37:24.239Z,10.73
2023-03-08T04:39:54.623Z,11.35
2023-03-08T04:42:21.187Z,12.60
2023-03-08T04:44:48.324Z,11.45
2023-03-08T04:47:18.802Z,12.23
2023-03-08T04:49:45.840Z,14.75
2023-03-08T04:52:12.859Z,12.43
2023-03-08T04:54:40.606Z,11.95
2023-03-08T04:57:18.521Z,13.38
2023-03-08T04:59:46.404Z,12.50
2023-03-08T05:02:14.042Z,14.82
2023-03-08T05:04:40.915Z,13.57
2023-03-08T05:07:07.514Z,14.82
2023-03-08T05:09:36.058Z,14.65
2023-03-08T05:12:02.532Z,14.68
2023-03-08T05:14:43.056Z,11.70
2023-03-08T05:17:09.650Z,17.15
2023-03-08T05:19:36.086Z,13.00
2023-03-08T05:22:05.651Z,13.07
2023-03-08T05:24:33.091Z,13.55
2023-03-08T05:27:05.090Z,14.13
2023-03-08T05:29:31.630Z,13.07
2023-03-08T05:32:00.967Z,14.50
2023-03-08T05:34:28.896Z,12.30
2023-03-08T05:36:56.472Z,14.88
2023-03-08T05:39:22.950Z,13.45
2023-03-08T05:41:56.669Z,16.10
2023-03-08T05:44:29.073Z,17.27
2023-03-08T05:46:57.935Z,14.40
2023-03-08T05:49:25.481Z,14.32
2023-03-08T05:51:52.080Z,14.05
2023-03-08T05:54:19.831Z,11.93
2023-03-08T05:56:49.052Z,13.30
2023-03-08T05:59:24.195Z,12.55
2023-03-08T06:01:51.102Z,14.82
2023-03-08T06:04:24.991Z,13.38
2023-03-08T06:06:51.701Z,13.50
2023-03-08T06:09:20.753Z,11.55
2023-03-08T06:11:47.678Z,13.75
2023-03-08T06:14:14.273Z,11.27
2023-03-08T06:16:41.323Z,13.30
2023-03-08T06:19:07.909Z,13.38
2023-03-08T06:21:36.035Z,11.90
2023-03-08T06:24:04.181Z,10.95
2023-03-08T06:26:31.063Z,12.07
2023-03-08T06:28:57.628Z,12.73
2023-03-08T06:31:28.121Z,11.75
2023-03-08T06:33:55.256Z,12.55
2023-03-08T06:36:24.757Z,9.88
2023-03-08T06:38:51.203Z,9.95
2023-03-08T06:41:18.703Z,11.02
2023-03-08T06:43:48.708Z,11.50
2023-03-08T06:46:19.352Z,8.18
2023-03-08T06:48:46.402Z,8.35
2023-03-08T06:51:13.223Z,8.68
2023-03-08T06:53:43.609Z,13.07
2023-03-08T06:56:12.529Z,10.65
2023-03-08T06:58:40.195Z,9.90
2023-03-08T07:01:09.698Z,9.98
2023-03-08T07:03:36.769Z,9.57
2023-03-08T07:06:04.741Z,11.50
2023-03-08T07:08:31.391Z,11.35
2023-03-08T07:10:58.838Z,9.48
2023-03-08T07:13:25.547Z,7.95
2023-03-08T07:15:52.105Z,10.57
2023-03-08T07:18:19.312Z,7.63
2023-03-08T07:20:45.761Z,8.13
2023-03-08T07:23:12.492Z,9.32
2023-03-08T07:25:40.144Z,7.00
2023-03-08T07:28:06.644Z,10.48
2023-03-08T07:30:33.103Z,10.02
2023-03-08T07:32:59.669Z,8.55
2023-03-08T07:35:26.198Z,9.68
2023-03-08T07:37:52.782Z,12.68
2023-03-08T07:40:19.461Z,8.27
2023-03-08T07:42:46.119Z,7.55
2023-03-08T07:45:27.188Z,9.25
2023-03-08T07:47:53.722Z,11.82
2023-03-08T07:50:20.870Z,9.43
2023-03-08T07:52:47.633Z,10.93
2023-03-08T07:55:14.503Z,9.07
2023-03-08T07:57:40.956Z,11.02
2023-03-08T08:00:08.051Z,11.10
2023-03-08T08:02:38.448Z,7.53
2023-03-08T08:05:05.237Z,7.40
2023-03-08T08:07:31.906Z,8.48
2023-03-08T08:09:58.420Z,8.32
2023-03-08T08:12:24.848Z,7.43
2023-03-08T08:14:52.629Z,8.75
2023-03-08T08:17:22.408Z,7.30
2023-03-08T08:19:49.470Z,6.85
2023-03-08T08:22:15.968Z,6.55
2023-03-08T08:24:42.388Z,6.07
2023-03-08T08:27:08.788Z,7.78
2023-03-08T08:29:36.584Z,8.73
2023-03-08T08:32:04.113Z,7.72
2023-03-08T08:34:30.524Z,6.68
2023-03-08T08:36:57.008Z,7.45
2023-03-08T08:39:23.538Z,7.18
2023-03-08T08:41:50.192Z,6.20
2023-03-08T08:44:16.724Z,5.50
2023-03-08T08:46:43.223Z,5.28
2023-03-08T08:49:10.297Z,6.20
2023-03-08T08:51:36.787Z,8.45
2023-03-08T08:54:03.503Z,7.45
2023-03-08T08:56:30.441Z,4.93
2023-03-08T08:59:00.341Z,9.07
2023-03-08T09:01:28.808Z,5.07
2023-03-08T09:03:55.485Z,5.68
2023-03-08T09:06:22.709Z,5.20
2023-03-08T09:08:52.712Z,4.63
2023-03-08T09:11:19.217Z,5.22
2023-03-08T09:13:45.808Z,6.93
2023-03-08T09:16:22.844Z,6.80
2023-03-08T09:18:49.480Z,5.97
2023-03-08T09:21:16.356Z,4.65
2023-03-08T09:23:42.784Z,4.57
2023-03-08T09:26:09.490Z,5.95
2023-03-08T09:28:36.149Z,4.40
2023-03-08T09:31:07.708Z,4.75
2023-03-08T09:33:34.146Z,6.43
2023-03-08T09:36:01.247Z,6.30
2023-03-08T09:38:27.697Z,4.53
2023-03-08T09:41:05.139Z,8.93
2023-03-08T09:43:40.398Z,5.00
2023-03-08T09:46:09.503Z,7.32
2023-03-08T09:48:36.639Z,5.35
2023-03-08T09:51:07.271Z,5.70
2023-03-08T09:53:41.277Z,4.95
2023-03-08T09:56:14.818Z,4.93
2023-03-08T09:58:43.480Z,5.53
2023-03-08T10:01:22.652Z,6.72
2023-03-08T10:04:08.020Z,6.05
2023-03-08T10:06:37.097Z,6.70
2023-03-08T10:09:13.165Z,4.53
2023-03-08T10:11:44.747Z,4.57
2023-03-08T10:14:19.406Z,4.75
2023-03-08T10:16:48.255Z,6.15
2023-03-08T10:19:17.560Z,5.00
2023-03-08T10:21:44.596Z,4.10
2023-03-08T10:24:15.968Z,6.45
2023-03-08T10:26:43.768Z,3.90
2023-03-08T10:29:13.801Z,4.93
2023-03-08T10:31:42.791Z,5.43
2023-03-08T10:34:13.800Z,5.43
2023-03-08T10:36:47.729Z,5.28
2023-03-08T10:39:14.183Z,6.22
2023-03-08T10:42:00.592Z,5.43
2023-03-08T10:44:36.820Z,4.53
2023-03-08T10:47:18.454Z,5.88
2023-03-08T10:49:47.234Z,4.13
2023-03-08T10:52:40.556Z,4.40
2023-03-08T10:55:12.484Z,4.63
2023-03-08T10:57:40.204Z,3.97
2023-03-08T11:00:29.262Z,4.82
2023-03-08T11:03:03.420Z,5.00
2023-03-08T11:05:29.911Z,5.72
2023-03-08T11:07:57.761Z,7.05
2023-03-08T11:10:25.456Z,5.28
2023-03-08T11:13:02.090Z,3.95
2023-03-08T11:15:30.764Z,4.75
2023-03-08T11:18:03.334Z,5.40
2023-03-08T11:20:42.526Z,4.65
2023-03-08T11:23:15.143Z,5.65
2023-03-08T11:25:46.080Z,5.10
2023-03-08T11:28:22.069Z,4.95
2023-03-08T11:30:55.015Z,3.38
2023-03-08T11:33:21.581Z,4.13
2023-03-08T11:35:52.059Z,4.90
2023-03-08T11:38:26.281Z,4.60
2023-03-08T11:41:11.350Z,8.27
2023-03-08T11:43:40.553Z,4.43
2023-03-08T11:46:13.128Z,7.70
2023-03-08T11:48:54.211Z,5.67
2023-03-08T11:51:21.097Z,6.30
2023-03-08T11:54:06.133Z,6.53
2023-03-08T11:56:51.668Z,7.72
2023-03-08T11:59:34.516Z,5.88
2023-03-08T12:02:11.547Z,8.77
2023-03-08T12:04:42.229Z,5.78
2023-03-08T12:07:21.928Z,4.68
2023-03-08T12:10:07.468Z,4.93
2023-03-08T12:12:40.029Z,6.40
2023-03-08T12:15:12.248Z,5.20
2023-03-08T12:17:41.870Z,5.60
2023-03-08T12:20:15.361Z,6.47
2023-03-08T12:25:29.301Z,6.10
2023-03-08T12:27:55.832Z,5.85
2023-03-08T12:30:26.565Z,4.82
2023-03-08T12:32:56.218Z,5.80
2023-03-08T12:35:22.913Z,5.95
2023-03-08T12:37:56.419Z,7.25
2023-03-08T12:40:38.227Z,4.90
2023-03-08T12:43:12.483Z,6.07
2023-03-08T12:45:40.282Z,4.60
2023-03-08T12:48:06.782Z,6.20
2023-03-08T12:50:40.592Z,6.20
2023-03-08T12:53:25.627Z,4.22
2023-03-08T12:56:10.169Z,4.82
2023-03-08T12:58:47.518Z,4.85
2023-03-08T13:01:43.187Z,4.43
2023-03-08T13:04:39.925Z,5.03
2023-03-08T13:07:07.262Z,7.38
2023-03-08T13:09:39.713Z,11.32
2023-03-08T13:12:06.160Z,6.35
2023-03-08T13:14:40.640Z,5.10
2023-03-08T13:17:26.046Z,6.43
2023-03-08T13:19:52.598Z,9.00
2023-03-08T13:22:31.019Z,3.50
2023-03-08T13:25:17.361Z,5.70
2023-03-08T13:28:01.933Z,4.28
2023-03-08T13:30:36.071Z,3.75
2023-03-08T13:33:07.134Z,6.50
2023-03-08T13:35:33.614Z,4.90
2023-03-08T13:38:00.314Z,8.80
2023-03-08T13:40:28.153Z,4.28
2023-03-08T13:43:11.032Z,10.35
2023-03-08T13:45:37.706Z,4.40
2023-03-08T13:48:07.107Z,9.40
2023-03-08T13:50:38.879Z,4.65
2023-03-08T13:53:08.898Z,7.00
2023-03-08T13:55:39.537Z,6.20
2023-03-08T13:58:06.101Z,5.00
2023-03-08T14:00:33.988Z,4.78
2023-03-08T14:03:01.539Z,6.22
2023-03-08T14:05:30.168Z,5.60
2023-03-08T14:08:02.941Z,6.82
2023-03-08T14:10:37.377Z,6.00
2023-03-08T14:13:05.020Z,8.10
2023-03-08T14:15:33.825Z,7.45
2023-03-08T14:18:00.776Z,6.43
2023-03-08T14:20:27.468Z,6.13
2023-03-08T14:22:54.680Z,9.18
2023-03-08T14:25:23.083Z,5.20
2023-03-08T14:27:49.894Z,9.15
2023-03-08T14:30:17.794Z,8.82
2023-03-08T14:33:01.024Z,5.45
2023-03-08T14:35:28.991Z,8.60
2023-03-08T14:37:56.315Z,7.60
2023-03-08T14:40:26.587Z,6.45
2023-03-08T14:42:54.743Z,8.48
2023-03-08T14:45:21.518Z,5.55
2023-03-08T14:47:52.597Z,5.00
2023-03-08T14:50:21.451Z,6.47
2023-03-08T14:52:49.579Z,6.18
2023-03-08T14:55:20.560Z,5.85
2023-03-08T14:57:47.044Z,5.78
2023-03-08T15:00:14.666Z,6.65
2023-03-08T15:02:41.576Z,7.07
2023-03-08T15:05:28.364Z,7.28
2023-03-08T15:07:56.382Z,7.60
2023-03-08T15:10:33.729Z,6.57
2023-03-08T15:13:00.343Z,5.80
2023-03-08T15:15:26.932Z,7.20
2023-03-08T15:17:53.426Z,7.25
2023-03-08T15:20:20.447Z,5.88
2023-03-08T15:22:48.468Z,6.22
2023-03-08T15:25:16.660Z,8.02
2023-03-08T15:27:43.189Z,7.90
2023-03-08T15:30:14.414Z,10.55
2023-03-08T15:32:41.763Z,6.00
2023-03-08T15:35:08.443Z,6.90
2023-03-08T15:37:34.918Z,7.55
2023-03-08T15:40:01.339Z,10.20
2023-03-08T15:42:27.741Z,5.93
2023-03-08T15:44:54.147Z,8.60
2023-03-08T15:47:22.052Z,6.60
2023-03-08T15:49:51.789Z,8.35
2023-03-08T15:52:18.242Z,8.10
2023-03-08T15:54:47.370Z,8.52
2023-03-08T15:57:14.186Z,8.52
2023-03-08T15:59:41.000Z,12.45
2023-03-08T16:02:11.476Z,14.00
2023-03-08T16:04:38.015Z,14.90
2023-03-08T16:07:04.465Z,16.98
2023-03-08T16:09:30.897Z,13.15
2023-03-08T16:11:57.565Z,13.90
2023-03-08T16:14:24.103Z,13.15
2023-03-08T16:16:50.528Z,11.10
2023-03-08T16:19:17.180Z,11.65
2023-03-08T16:21:43.658Z,15.85
2023-03-08T16:24:10.711Z,12.13
2023-03-08T16:26:37.312Z,11.25
2023-03-08T16:29:04.554Z,14.13
2023-03-08T16:31:33.353Z,12.77
2023-03-08T16:34:03.818Z,24.67
2023-03-08T16:36:30.360Z,16.55
2023-03-08T16:38:56.926Z,15.13
2023-03-08T16:41:26.065Z,12.70
2023-03-08T16:43:52.523Z,18.42
2023-03-08T16:46:20.443Z,12.57
2023-03-08T16:48:49.529Z,20.38
2023-03-08T16:51:17.302Z,17.20
2023-03-08T16:53:43.980Z,16.48
2023-03-08T16:56:17.044Z,18.05
2023-03-08T16:58:43.541Z,18.02
2023-03-08T17:01:10.763Z,19.80
2023-03-08T17:03:38.549Z,18.42
2023-03-08T17:06:09.098Z,19.75
2023-03-08T17:08:35.683Z,17.30
2023-03-08T17:11:03.700Z,18.38
2023-03-08T17:13:30.340Z,14.57
2023-03-08T17:15:56.924Z,15.82
2023-03-08T17:18:26.159Z,15.25
2023-03-08T17:20:52.886Z,12.27
2023-03-08T17:23:19.808Z,13.95
2023-03-08T17:25:46.657Z,14.35
2023-03-08T17:28:13.105Z,13.48
2023-03-08T17:30:41.307Z,13.73
2023-03-08T17:33:08.255Z,15.43
2023-03-08T17:35:34.755Z,13.70
2023-03-08T17:38:01.295Z,14.52
2023-03-08T17:40:27.755Z,11.70
2023-03-08T17:42:54.797Z,12.20
2023-03-08T17:45:21.277Z,10.43
2023-03-08T17:47:48.279Z,12.57
2023-03-08T17:50:14.820Z,13.00
2023-03-08T17:52:41.599Z,12.77
2023-03-08T17:55:08.308Z,13.35
2023-03-08T17:57:35.458Z,18.17
2023-03-08T18:00:02.026Z,17.45
2023-03-08T18:02:30.589Z,15.88
2023-03-08T18:04:57.054Z,19.20
2023-03-08T18:07:27.646Z,17.60
2023-03-08T18:09:54.219Z,20.13
2023-03-08T18:12:20.602Z,18.63
2023-03-08T18:14:50.513Z,21.30
2023-03-08T18:17:17.000Z,23.25
2023-03-08T18:19:43.542Z,23.40
2023-03-08T18:22:10.123Z,23.30
2023-03-08T18:24:36.615Z,23.95
2023-03-08T18:27:05.450Z,20.98
2023-03-08T18:29:35.441Z,18.83
2023-03-08T18:32:02.332Z,17.83
2023-03-08T18:34:28.881Z,12.45
2023-03-08T18:36:56.125Z,13.63
2023-03-08T18:39:22.545Z,13.82
2023-03-08T18:41:49.072Z,25.40
2023-03-08T18:44:15.506Z,14.27
2023-03-08T18:46:42.050Z,14.98
2023-03-08T18:49:11.320Z,18.05
2023-03-08T18:51:39.027Z,16.90
2023-03-08T18:54:05.883Z,18.25
2023-03-08T18:56:32.550Z,15.45
2023-03-08T18:59:00.083Z,18.58
2023-03-08T19:01:28.577Z,18.33
2023-03-08T19:03:54.982Z,15.98
2023-03-08T19:06:21.570Z,14.40
2023-03-08T19:08:47.975Z,15.45
2023-03-08T19:11:14.441Z,19.95
2023-03-08T19:13:41.724Z,17.13
2023-03-08T19:16:25.016Z,14.75
2023-03-08T19:18:55.606Z,13.52
2023-03-08T19:21:26.494Z,14.70
2023-03-08T19:23:53.090Z,15.95
2023-03-08T19:26:35.904Z,15.60
2023-03-08T19:29:03.654Z,15.77
2023-03-08T19:31:30.482Z,11.35
2023-03-08T19:33:56.993Z,12.30
2023-03-08T19:36:24.104Z,14.40
2023-03-08T19:38:51.002Z,12.73
2023-03-08T19:41:17.766Z,14.35
2023-03-08T19:43:44.240Z,16.60
2023-03-08T19:46:10.889Z,16.92
2023-03-08T19:48:37.482Z,14.18
2023-03-08T19:51:04.844Z,16.05
2023-03-08T19:53:31.256Z,15.75
2023-03-08T19:55:57.672Z,15.48
2023-03-08T19:58:24.199Z,14.80
2023-03-08T20:00:50.676Z,11.93
2023-03-08T20:03:17.430Z,14.43
2023-03-08T20:05:45.112Z,14.00
2023-03-08T20:08:12.635Z,15.45
2023-03-08T20:10:39.282Z,14.20
2023-03-08T20:13:05.935Z,14.63
2023-03-08T20:15:32.483Z,16.67
2023-03-08T20:17:59.133Z,15.68
2023-03-08T20:20:25.612Z,14.50
2023-03-08T20:22:52.156Z,14.07
2023-03-08T20:25:18.548Z,14.75
2023-03-08T20:27:45.073Z,15.98
2023-03-08T20:30:12.182Z,17.40
2023-03-08T20:32:38.808Z,14.60
2023-03-08T20:35:05.719Z,20.38
2023-03-08T20:37:32.384Z,15.93
2023-03-08T20:39:59.160Z,17.52
2023-03-08T20:42:25.972Z,18.65
2023-03-08T20:44:52.438Z,20.75
2023-03-08T20:47:18.842Z,20.52
2023-03-08T20:49:45.309Z,21.77
2023-03-08T20:52:11.722Z,23.27
2023-03-08T20:54:38.201Z,23.05
2023-03-08T20:57:05.641Z,21.80
2023-03-08T20:59:32.186Z,19.30
2023-03-08T21:01:58.854Z,21.90
2023-03-08T21:04:25.419Z,27.40
2023-03-08T21:06:52.436Z,27.05
2023-03-08T21:09:18.974Z,29.70
2023-03-08T21:11:45.541Z,29.08
2023-03-08T21:14:12.342Z,32.40
2023-03-08T21:16:38.980Z,28.63
2023-03-08T21:19:05.483Z,26.17
2023-03-08T21:21:36.676Z,28.52
2023-03-08T21:24:05.462Z,25.13
2023-03-08T21:26:32.416Z,24.65
2023-03-08T21:29:01.721Z,26.90
2023-03-08T21:31:29.309Z,25.50
2023-03-08T21:33:56.048Z,28.80
2023-03-08T21:36:22.763Z,28.35
2023-03-08T21:38:53.172Z,26.92
2023-03-08T21:41:24.207Z,25.38
2023-03-08T21:43:50.761Z,23.67
2023-03-08T21:46:17.470Z,25.67
2023-03-08T21:48:43.933Z,26.58
2023-03-08T21:51:10.949Z,26.85
2023-03-08T21:53:38.022Z,26.83
2023-03-08T21:56:08.456Z,27.65
2023-03-08T21:58:35.237Z,26.08
2023-03-08T22:01:02.218Z,26.45
2023-03-08T22:03:30.794Z,23.02
2023-03-08T22:05:58.076Z,24.60
2023-03-08T22:08:25.194Z,23.95
2023-03-08T22:10:52.184Z,24.25
2023-03-08T22:13:18.583Z,21.92
2023-03-08T22:15:45.092Z,21.58
2023-03-08T22:18:11.532Z,24.92
2023-03-08T22:20:37.942Z,24.02
2023-03-08T22:23:04.550Z,24.00
2023-03-08T22:25:31.063Z,21.15
2023-03-08T22:27:57.578Z,21.42
2023-03-08T22:30:25.742Z,22.83
2023-03-08T22:32:52.303Z,22.90
2023-03-08T22:35:18.825Z,23.50
2023-03-08T22:37:45.694Z,22.02
2023-03-08T22:40:13.087Z,21.42
2023-03-08T22:42:40.032Z,20.23
2023-03-08T22:45:07.227Z,19.75
2023-03-08T22:47:33.642Z,18.13
2023-03-08T22:50:00.112Z,18.90
2023-03-08T22:52:26.619Z,18.38
2023-03-08T22:54:53.044Z,19.67
2023-03-08T22:57:19.539Z,22.33
2023-03-08T22:59:46.890Z,22.35
2023-03-08T23:02:13.754Z,21.92
2023-03-08T23:04:40.472Z,26.42
2023-03-08T23:07:07.652Z,24.55
2023-03-08T23:09:34.329Z,25.17
2023-03-08T23:12:02.757Z,28.25
2023-03-08T23:18:10.742Z,27.15
2023-03-08T23:20:39.166Z,26.45
2023-03-08T23:23:07.074Z,31.13
2023-03-08T23:25:33.738Z,28.63
2023-03-08T23:28:00.480Z,24.13
2023-03-08T23:30:27.300Z,25.13
2023-03-08T23:33:49.654Z,25.17
2023-03-08T23:36:17.638Z,26.23
2023-03-08T23:38:44.371Z,27.38
2023-03-08T23:41:11.879Z,30.65
2023-03-08T23:43:38.684Z,28.08
2023-03-08T23:46:18.738Z,30.73
2023-03-08T23:48:46.240Z,29.67
2023-03-08T23:51:14.336Z,34.38
2023-03-08T23:53:40.890Z,30.20
2023-03-08T23:56:14.699Z,32.70
2023-03-08T23:58:41.440Z,29.45
